sensor_id;sensor_type;location;lat;lon;timestamp;P1;durP1;ratioP1;P2;durP2;ratioP2
74945;SDS011;63509;45.250;38.102;2024-01-25T00:00:16;8.93;;;5.25;;
74945;SDS011;63509;45.250;38.102;2024-01-25T00:02:42;22.95;;;6.07;;
74945;SDS011;63509;45.250;38.102;2024-01-25T00:05:08;23.25;;;7.60;;
74945;SDS011;63509;45.250;38.102;2024-01-25T00:07:34;10.88;;;5.57;;
74945;SDS011;63509;45.250;38.102;2024-01-25T00:10:10;9.35;;;5.13;;
74945;SDS011;63509;45.250;38.102;2024-01-25T00:12:36;7.93;;;4.65;;
74945;SDS011;63509;45.250;38.102;2024-01-25T00:15:02;8.02;;;5.05;;
74945;SDS011;63509;45.250;38.102;2024-01-25T00:17:29;9.82;;;5.97;;
74945;SDS011;63509;45.250;38.102;2024-01-25T00:19:55;13.13;;;5.30;;
74945;SDS011;63509;45.250;38.102;2024-01-25T00:22:21;11.65;;;4.47;;
74945;SDS011;63509;45.250;38.102;2024-01-25T00:24:47;9.15;;;4.78;;
74945;SDS011;63509;45.250;38.102;2024-01-25T00:27:13;10.25;;;6.15;;
74945;SDS011;63509;45.250;38.102;2024-01-25T00:29:39;12.77;;;7.43;;
74945;SDS011;63509;45.250;38.102;2024-01-25T00:32:06;8.82;;;5.88;;
74945;SDS011;63509;45.250;38.102;2024-01-25T00:34:32;10.25;;;4.95;;
74945;SDS011;63509;45.250;38.102;2024-01-25T00:36:58;12.13;;;7.10;;
74945;SDS011;63509;45.250;38.102;2024-01-25T00:39:24;12.48;;;5.55;;
74945;SDS011;63509;45.250;38.102;2024-01-25T00:41:51;13.43;;;5.85;;
74945;SDS011;63509;45.250;38.102;2024-01-25T00:44:18;13.10;;;4.25;;
74945;SDS011;63509;45.250;38.102;2024-01-25T00:46:44;6.43;;;4.35;;
74945;SDS011;63509;45.250;38.102;2024-01-25T00:49:13;9.77;;;4.18;;
74945;SDS011;63509;45.250;38.102;2024-01-25T00:51:39;6.88;;;4.63;;
74945;SDS011;63509;45.250;38.102;2024-01-25T00:54:11;9.93;;;4.22;;
74945;SDS011;63509;45.250;38.102;2024-01-25T00:56:37;12.25;;;5.80;;
74945;SDS011;63509;45.250;38.102;2024-01-25T00:59:04;8.40;;;5.00;;
74945;SDS011;63509;45.250;38.102;2024-01-25T01:01:30;9.50;;;4.10;;
74945;SDS011;63509;45.250;38.102;2024-01-25T01:03:57;8.50;;;5.03;;
74945;SDS011;63509;45.250;38.102;2024-01-25T01:06:24;8.30;;;5.07;;
74945;SDS011;63509;45.250;38.102;2024-01-25T01:08:51;6.25;;;3.63;;
74945;SDS011;63509;45.250;38.102;2024-01-25T01:11:18;11.85;;;4.10;;
74945;SDS011;63509;45.250;38.102;2024-01-25T01:13:44;6.03;;;2.90;;
74945;SDS011;63509;45.250;38.102;2024-01-25T01:16:10;6.50;;;4.00;;
74945;SDS011;63509;45.250;38.102;2024-01-25T01:18:36;11.77;;;2.65;;
74945;SDS011;63509;45.250;38.102;2024-01-25T01:21:04;6.95;;;3.25;;
74945;SDS011;63509;45.250;38.102;2024-01-25T01:23:30;6.15;;;3.45;;
74945;SDS011;63509;45.250;38.102;2024-01-25T01:25:56;6.93;;;3.03;;
74945;SDS011;63509;45.250;38.102;2024-01-25T01:28:22;13.23;;;4.15;;
74945;SDS011;63509;45.250;38.102;2024-01-25T01:30:48;8.52;;;2.85;;
74945;SDS011;63509;45.250;38.102;2024-01-25T01:33:14;8.00;;;3.85;;
74945;SDS011;63509;45.250;38.102;2024-01-25T01:35:40;7.78;;;4.43;;
74945;SDS011;63509;45.250;38.102;2024-01-25T01:38:06;8.45;;;4.63;;
74945;SDS011;63509;45.250;38.102;2024-01-25T01:40:32;6.82;;;3.75;;
74945;SDS011;63509;45.250;38.102;2024-01-25T01:43:02;6.70;;;2.13;;
74945;SDS011;63509;45.250;38.102;2024-01-25T01:45:28;8.60;;;3.72;;
74945;SDS011;63509;45.250;38.102;2024-01-25T01:47:55;7.05;;;2.63;;
74945;SDS011;63509;45.250;38.102;2024-01-25T01:50:22;9.32;;;3.63;;
74945;SDS011;63509;45.250;38.102;2024-01-25T01:52:49;8.77;;;3.35;;
74945;SDS011;63509;45.250;38.102;2024-01-25T01:55:16;6.28;;;3.05;;
74945;SDS011;63509;45.250;38.102;2024-01-25T01:57:43;5.35;;;2.70;;
74945;SDS011;63509;45.250;38.102;2024-01-25T02:00:11;7.47;;;2.80;;
74945;SDS011;63509;45.250;38.102;2024-01-25T02:02:40;11.07;;;3.17;;
74945;SDS011;63509;45.250;38.102;2024-01-25T02:05:06;4.75;;;2.67;;
74945;SDS011;63509;45.250;38.102;2024-01-25T02:07:32;5.03;;;3.20;;
74945;SDS011;63509;45.250;38.102;2024-01-25T02:09:58;8.90;;;2.85;;
74945;SDS011;63509;45.250;38.102;2024-01-25T02:12:24;11.18;;;4.95;;
74945;SDS011;63509;45.250;38.102;2024-01-25T02:14:50;17.83;;;5.70;;
74945;SDS011;63509;45.250;38.102;2024-01-25T02:17:16;10.18;;;3.65;;
74945;SDS011;63509;45.250;38.102;2024-01-25T02:19:42;5.32;;;2.72;;
74945;SDS011;63509;45.250;38.102;2024-01-25T02:22:08;8.15;;;3.90;;
74945;SDS011;63509;45.250;38.102;2024-01-25T02:24:34;6.65;;;2.47;;
74945;SDS011;63509;45.250;38.102;2024-01-25T02:27:00;6.68;;;2.92;;
74945;SDS011;63509;45.250;38.102;2024-01-25T02:29:27;6.18;;;2.13;;
74945;SDS011;63509;45.250;38.102;2024-01-25T02:31:53;9.07;;;3.00;;
74945;SDS011;63509;45.250;38.102;2024-01-25T02:34:19;8.27;;;2.85;;
74945;SDS011;63509;45.250;38.102;2024-01-25T02:36:45;5.90;;;2.15;;
74945;SDS011;63509;45.250;38.102;2024-01-25T02:39:11;2.90;;;1.70;;
74945;SDS011;63509;45.250;38.102;2024-01-25T02:41:37;8.05;;;2.85;;
74945;SDS011;63509;45.250;38.102;2024-01-25T02:44:03;5.30;;;2.58;;
74945;SDS011;63509;45.250;38.102;2024-01-25T02:46:29;2.72;;;1.25;;
74945;SDS011;63509;45.250;38.102;2024-01-25T02:48:55;4.18;;;2.28;;
74945;SDS011;63509;45.250;38.102;2024-01-25T02:51:21;3.55;;;2.08;;
74945;SDS011;63509;45.250;38.102;2024-01-25T02:53:47;3.80;;;2.08;;
74945;SDS011;63509;45.250;38.102;2024-01-25T02:56:14;7.90;;;2.83;;
74945;SDS011;63509;45.250;38.102;2024-01-25T02:58:40;6.00;;;2.35;;
74945;SDS011;63509;45.250;38.102;2024-01-25T03:01:06;4.32;;;1.60;;
74945;SDS011;63509;45.250;38.102;2024-01-25T03:03:32;7.03;;;2.65;;
74945;SDS011;63509;45.250;38.102;2024-01-25T03:05:58;4.25;;;3.15;;
74945;SDS011;63509;45.250;38.102;2024-01-25T03:08:25;6.63;;;3.10;;
74945;SDS011;63509;45.250;38.102;2024-01-25T03:10:51;6.55;;;2.60;;
74945;SDS011;63509;45.250;38.102;2024-01-25T03:13:17;4.72;;;2.60;;
74945;SDS011;63509;45.250;38.102;2024-01-25T03:15:43;3.50;;;2.33;;
74945;SDS011;63509;45.250;38.102;2024-01-25T03:18:10;7.95;;;2.70;;
74945;SDS011;63509;45.250;38.102;2024-01-25T03:20:36;7.15;;;4.15;;
74945;SDS011;63509;45.250;38.102;2024-01-25T03:23:02;5.93;;;2.67;;
74945;SDS011;63509;45.250;38.102;2024-01-25T03:25:29;4.00;;;2.28;;
74945;SDS011;63509;45.250;38.102;2024-01-25T03:27:56;8.55;;;2.78;;
74945;SDS011;63509;45.250;38.102;2024-01-25T03:30:22;11.50;;;3.75;;
74945;SDS011;63509;45.250;38.102;2024-01-25T03:32:49;13.82;;;2.63;;
74945;SDS011;63509;45.250;38.102;2024-01-25T03:35:15;3.78;;;2.83;;
74945;SDS011;63509;45.250;38.102;2024-01-25T03:37:41;9.13;;;2.55;;
74945;SDS011;63509;45.250;38.102;2024-01-25T03:40:07;6.00;;;1.77;;
74945;SDS011;63509;45.250;38.102;2024-01-25T03:42:33;3.20;;;1.85;;
74945;SDS011;63509;45.250;38.102;2024-01-25T03:44:59;5.07;;;2.80;;
74945;SDS011;63509;45.250;38.102;2024-01-25T03:47:25;6.72;;;3.58;;
74945;SDS011;63509;45.250;38.102;2024-01-25T03:49:51;6.57;;;2.60;;
74945;SDS011;63509;45.250;38.102;2024-01-25T03:52:17;5.03;;;3.03;;
74945;SDS011;63509;45.250;38.102;2024-01-25T03:54:43;5.28;;;2.90;;
74945;SDS011;63509;45.250;38.102;2024-01-25T03:57:09;5.80;;;3.60;;
74945;SDS011;63509;45.250;38.102;2024-01-25T03:59:36;4.30;;;1.52;;
74945;SDS011;63509;45.250;38.102;2024-01-25T04:02:02;4.95;;;2.55;;
74945;SDS011;63509;45.250;38.102;2024-01-25T04:04:28;4.90;;;2.95;;
74945;SDS011;63509;45.250;38.102;2024-01-25T04:06:54;8.85;;;4.07;;
74945;SDS011;63509;45.250;38.102;2024-01-25T04:09:20;8.43;;;3.38;;
74945;SDS011;63509;45.250;38.102;2024-01-25T04:11:46;5.15;;;2.05;;
74945;SDS011;63509;45.250;38.102;2024-01-25T04:14:12;5.80;;;2.65;;
74945;SDS011;63509;45.250;38.102;2024-01-25T04:16:38;5.78;;;2.67;;
74945;SDS011;63509;45.250;38.102;2024-01-25T04:19:05;5.55;;;2.85;;
74945;SDS011;63509;45.250;38.102;2024-01-25T04:21:31;3.08;;;1.98;;
74945;SDS011;63509;45.250;38.102;2024-01-25T04:23:57;5.30;;;2.50;;
74945;SDS011;63509;45.250;38.102;2024-01-25T04:26:23;5.95;;;3.20;;
74945;SDS011;63509;45.250;38.102;2024-01-25T04:28:49;7.35;;;2.78;;
74945;SDS011;63509;45.250;38.102;2024-01-25T04:31:16;3.60;;;1.70;;
74945;SDS011;63509;45.250;38.102;2024-01-25T04:33:42;2.92;;;2.13;;
74945;SDS011;63509;45.250;38.102;2024-01-25T04:36:08;7.95;;;2.88;;
74945;SDS011;63509;45.250;38.102;2024-01-25T04:38:34;6.43;;;3.08;;
74945;SDS011;63509;45.250;38.102;2024-01-25T04:41:00;6.53;;;2.85;;
74945;SDS011;63509;45.250;38.102;2024-01-25T04:43:26;13.60;;;4.05;;
74945;SDS011;63509;45.250;38.102;2024-01-25T04:45:53;5.32;;;2.92;;
74945;SDS011;63509;45.250;38.102;2024-01-25T04:48:19;5.60;;;3.28;;
74945;SDS011;63509;45.250;38.102;2024-01-25T04:50:45;6.97;;;2.55;;
74945;SDS011;63509;45.250;38.102;2024-01-25T04:53:11;4.97;;;2.40;;
74945;SDS011;63509;45.250;38.102;2024-01-25T04:55:37;9.82;;;2.92;;
74945;SDS011;63509;45.250;38.102;2024-01-25T04:58:03;4.35;;;2.17;;
74945;SDS011;63509;45.250;38.102;2024-01-25T05:00:29;6.50;;;2.67;;
74945;SDS011;63509;45.250;38.102;2024-01-25T05:02:56;8.23;;;3.30;;
74945;SDS011;63509;45.250;38.102;2024-01-25T05:05:22;7.20;;;3.47;;
74945;SDS011;63509;45.250;38.102;2024-01-25T05:07:48;6.40;;;3.65;;
74945;SDS011;63509;45.250;38.102;2024-01-25T05:10:14;13.55;;;2.97;;
74945;SDS011;63509;45.250;38.102;2024-01-25T05:12:40;6.03;;;3.38;;
74945;SDS011;63509;45.250;38.102;2024-01-25T05:15:06;10.02;;;2.63;;
74945;SDS011;63509;45.250;38.102;2024-01-25T05:17:33;8.20;;;2.17;;
74945;SDS011;63509;45.250;38.102;2024-01-25T05:19:59;5.25;;;2.30;;
74945;SDS011;63509;45.250;38.102;2024-01-25T05:22:25;6.53;;;3.50;;
74945;SDS011;63509;45.250;38.102;2024-01-25T05:24:51;8.15;;;3.00;;
74945;SDS011;63509;45.250;38.102;2024-01-25T05:27:17;5.85;;;2.88;;
74945;SDS011;63509;45.250;38.102;2024-01-25T05:29:43;7.80;;;2.88;;
74945;SDS011;63509;45.250;38.102;2024-01-25T05:32:09;5.63;;;2.22;;
74945;SDS011;63509;45.250;38.102;2024-01-25T05:34:36;12.90;;;3.75;;
74945;SDS011;63509;45.250;38.102;2024-01-25T05:37:02;6.05;;;2.58;;
74945;SDS011;63509;45.250;38.102;2024-01-25T05:39:28;5.88;;;2.17;;
74945;SDS011;63509;45.250;38.102;2024-01-25T05:41:54;6.70;;;3.05;;
74945;SDS011;63509;45.250;38.102;2024-01-25T05:44:20;14.45;;;4.38;;
74945;SDS011;63509;45.250;38.102;2024-01-25T05:46:46;8.88;;;3.83;;
74945;SDS011;63509;45.250;38.102;2024-01-25T05:49:12;7.95;;;4.38;;
74945;SDS011;63509;45.250;38.102;2024-01-25T05:51:38;8.57;;;4.68;;
74945;SDS011;63509;45.250;38.102;2024-01-25T05:54:04;12.25;;;3.83;;
74945;SDS011;63509;45.250;38.102;2024-01-25T05:56:31;9.18;;;3.30;;
74945;SDS011;63509;45.250;38.102;2024-01-25T05:58:57;6.45;;;3.00;;
74945;SDS011;63509;45.250;38.102;2024-01-25T06:01:23;8.23;;;3.65;;
74945;SDS011;63509;45.250;38.102;2024-01-25T06:03:50;14.68;;;4.45;;
74945;SDS011;63509;45.250;38.102;2024-01-25T06:06:16;7.38;;;3.13;;
74945;SDS011;63509;45.250;38.102;2024-01-25T06:08:42;8.15;;;3.92;;
74945;SDS011;63509;45.250;38.102;2024-01-25T06:11:08;4.15;;;2.53;;
74945;SDS011;63509;45.250;38.102;2024-01-25T06:13:35;18.10;;;4.68;;
74945;SDS011;63509;45.250;38.102;2024-01-25T06:16:01;6.25;;;3.38;;
74945;SDS011;63509;45.250;38.102;2024-01-25T06:18:27;12.13;;;4.95;;
74945;SDS011;63509;45.250;38.102;2024-01-25T06:20:53;12.30;;;3.95;;
74945;SDS011;63509;45.250;38.102;2024-01-25T06:23:19;9.13;;;4.22;;
74945;SDS011;63509;45.250;38.102;2024-01-25T06:25:45;9.02;;;4.72;;
74945;SDS011;63509;45.250;38.102;2024-01-25T06:28:11;17.30;;;5.13;;
74945;SDS011;63509;45.250;38.102;2024-01-25T06:30:37;8.85;;;3.47;;
74945;SDS011;63509;45.250;38.102;2024-01-25T06:33:04;6.80;;;4.13;;
74945;SDS011;63509;45.250;38.102;2024-01-25T06:35:30;5.78;;;3.47;;
74945;SDS011;63509;45.250;38.102;2024-01-25T06:37:57;7.47;;;4.45;;
74945;SDS011;63509;45.250;38.102;2024-01-25T06:40:23;9.05;;;4.35;;
74945;SDS011;63509;45.250;38.102;2024-01-25T06:42:49;6.10;;;3.70;;
74945;SDS011;63509;45.250;38.102;2024-01-25T06:45:15;10.63;;;4.85;;
74945;SDS011;63509;45.250;38.102;2024-01-25T06:47:41;13.40;;;4.07;;
74945;SDS011;63509;45.250;38.102;2024-01-25T06:50:07;8.27;;;4.93;;
74945;SDS011;63509;45.250;38.102;2024-01-25T06:52:34;8.88;;;4.80;;
74945;SDS011;63509;45.250;38.102;2024-01-25T06:55:00;10.75;;;4.13;;
74945;SDS011;63509;45.250;38.102;2024-01-25T06:57:26;7.05;;;4.15;;
74945;SDS011;63509;45.250;38.102;2024-01-25T06:59:52;10.70;;;6.28;;
74945;SDS011;63509;45.250;38.102;2024-01-25T07:02:18;27.20;;;5.82;;
74945;SDS011;63509;45.250;38.102;2024-01-25T07:04:44;14.48;;;6.70;;
74945;SDS011;63509;45.250;38.102;2024-01-25T07:07:11;15.23;;;6.50;;
74945;SDS011;63509;45.250;38.102;2024-01-25T07:09:37;11.60;;;5.55;;
74945;SDS011;63509;45.250;38.102;2024-01-25T07:12:03;15.32;;;6.22;;
74945;SDS011;63509;45.250;38.102;2024-01-25T07:14:29;6.97;;;4.82;;
74945;SDS011;63509;45.250;38.102;2024-01-25T07:16:55;11.02;;;6.70;;
74945;SDS011;63509;45.250;38.102;2024-01-25T07:19:21;15.25;;;6.63;;
74945;SDS011;63509;45.250;38.102;2024-01-25T07:21:47;12.60;;;5.85;;
74945;SDS011;63509;45.250;38.102;2024-01-25T07:24:13;11.13;;;5.22;;
74945;SDS011;63509;45.250;38.102;2024-01-25T07:26:39;20.35;;;6.80;;
74945;SDS011;63509;45.250;38.102;2024-01-25T07:29:05;11.35;;;5.18;;
74945;SDS011;63509;45.250;38.102;2024-01-25T07:31:31;8.82;;;5.22;;
74945;SDS011;63509;45.250;38.102;2024-01-25T07:33:57;11.18;;;5.55;;
74945;SDS011;63509;45.250;38.102;2024-01-25T07:36:23;22.75;;;5.63;;
74945;SDS011;63509;45.250;38.102;2024-01-25T07:38:50;16.20;;;5.85;;
74945;SDS011;63509;45.250;38.102;2024-01-25T07:41:16;15.27;;;4.78;;
74945;SDS011;63509;45.250;38.102;2024-01-25T07:43:42;14.30;;;5.00;;
74945;SDS011;63509;45.250;38.102;2024-01-25T07:46:09;10.23;;;3.78;;
74945;SDS011;63509;45.250;38.102;2024-01-25T07:48:36;12.90;;;4.03;;
74945;SDS011;63509;45.250;38.102;2024-01-25T07:51:02;5.82;;;3.35;;
74945;SDS011;63509;45.250;38.102;2024-01-25T07:53:35;12.20;;;3.30;;
74945;SDS011;63509;45.250;38.102;2024-01-25T07:56:02;9.20;;;4.53;;
74945;SDS011;63509;45.250;38.102;2024-01-25T07:58:28;7.57;;;3.17;;
74945;SDS011;63509;45.250;38.102;2024-01-25T08:00:55;12.30;;;3.72;;
74945;SDS011;63509;45.250;38.102;2024-01-25T08:03:21;11.82;;;5.32;;
74945;SDS011;63509;45.250;38.102;2024-01-25T08:05:47;17.40;;;5.65;;
74945;SDS011;63509;45.250;38.102;2024-01-25T08:08:14;5.80;;;3.08;;
74945;SDS011;63509;45.250;38.102;2024-01-25T08:10:40;12.80;;;3.90;;
74945;SDS011;63509;45.250;38.102;2024-01-25T08:13:06;5.32;;;3.17;;
74945;SDS011;63509;45.250;38.102;2024-01-25T08:15:32;6.97;;;2.95;;
74945;SDS011;63509;45.250;38.102;2024-01-25T08:17:58;5.03;;;2.65;;
74945;SDS011;63509;45.250;38.102;2024-01-25T08:20:24;10.77;;;2.50;;
74945;SDS011;63509;45.250;38.102;2024-01-25T08:22:50;6.55;;;2.65;;
74945;SDS011;63509;45.250;38.102;2024-01-25T08:25:16;5.30;;;2.53;;
74945;SDS011;63509;45.250;38.102;2024-01-25T08:27:42;7.13;;;3.47;;
74945;SDS011;63509;45.250;38.102;2024-01-25T08:30:09;9.55;;;3.50;;
74945;SDS011;63509;45.250;38.102;2024-01-25T08:32:35;11.32;;;4.97;;
74945;SDS011;63509;45.250;38.102;2024-01-25T08:35:01;11.65;;;3.78;;
74945;SDS011;63509;45.250;38.102;2024-01-25T08:37:27;5.85;;;2.83;;
74945;SDS011;63509;45.250;38.102;2024-01-25T08:39:53;8.52;;;2.45;;
74945;SDS011;63509;45.250;38.102;2024-01-25T08:42:19;6.95;;;3.00;;
74945;SDS011;63509;45.250;38.102;2024-01-25T08:44:46;5.25;;;2.38;;
74945;SDS011;63509;45.250;38.102;2024-01-25T08:47:17;18.70;;;4.05;;
74945;SDS011;63509;45.250;38.102;2024-01-25T08:49:44;11.63;;;3.53;;
74945;SDS011;63509;45.250;38.102;2024-01-25T08:52:10;8.45;;;2.05;;
74945;SDS011;63509;45.250;38.102;2024-01-25T08:54:36;8.10;;;2.15;;
74945;SDS011;63509;45.250;38.102;2024-01-25T08:57:04;6.63;;;2.83;;
74945;SDS011;63509;45.250;38.102;2024-01-25T08:59:31;6.45;;;2.55;;
74945;SDS011;63509;45.250;38.102;2024-01-25T09:01:58;13.88;;;2.80;;
74945;SDS011;63509;45.250;38.102;2024-01-25T09:04:24;4.53;;;1.80;;
74945;SDS011;63509;45.250;38.102;2024-01-25T09:06:50;5.55;;;2.33;;
74945;SDS011;63509;45.250;38.102;2024-01-25T09:09:17;6.75;;;1.90;;
74945;SDS011;63509;45.250;38.102;2024-01-25T09:11:43;4.88;;;1.55;;
74945;SDS011;63509;45.250;38.102;2024-01-25T09:14:10;3.47;;;1.83;;
74945;SDS011;63509;45.250;38.102;2024-01-25T09:16:36;3.40;;;1.25;;
74945;SDS011;63509;45.250;38.102;2024-01-25T09:19:04;3.33;;;1.85;;
74945;SDS011;63509;45.250;38.102;2024-01-25T09:21:30;6.90;;;1.40;;
74945;SDS011;63509;45.250;38.102;2024-01-25T09:23:56;14.98;;;1.50;;
74945;SDS011;63509;45.250;38.102;2024-01-25T09:26:22;9.95;;;2.13;;
74945;SDS011;63509;45.250;38.102;2024-01-25T09:28:48;3.42;;;1.73;;
74945;SDS011;63509;45.250;38.102;2024-01-25T09:31:14;5.80;;;1.17;;
74945;SDS011;63509;45.250;38.102;2024-01-25T09:33:40;9.90;;;1.15;;
74945;SDS011;63509;45.250;38.102;2024-01-25T09:36:07;4.07;;;1.70;;
74945;SDS011;63509;45.250;38.102;2024-01-25T09:38:33;7.40;;;2.08;;
74945;SDS011;63509;45.250;38.102;2024-01-25T09:40:59;32.35;;;2.50;;
74945;SDS011;63509;45.250;38.102;2024-01-25T09:43:26;6.90;;;1.00;;
74945;SDS011;63509;45.250;38.102;2024-01-25T09:45:53;6.65;;;2.00;;
74945;SDS011;63509;45.250;38.102;2024-01-25T09:48:22;18.48;;;1.60;;
74945;SDS011;63509;45.250;38.102;2024-01-25T09:50:48;10.82;;;2.90;;
74945;SDS011;63509;45.250;38.102;2024-01-25T09:53:17;22.30;;;1.77;;
74945;SDS011;63509;45.250;38.102;2024-01-25T09:55:59;14.35;;;2.92;;
74945;SDS011;63509;45.250;38.102;2024-01-25T09:58:37;6.38;;;1.38;;
74945;SDS011;63509;45.250;38.102;2024-01-25T10:01:13;3.15;;;1.38;;
74945;SDS011;63509;45.250;38.102;2024-01-25T10:03:42;18.15;;;1.58;;
74945;SDS011;63509;45.250;38.102;2024-01-25T10:06:09;3.03;;;1.60;;
74945;SDS011;63509;45.250;38.102;2024-01-25T10:08:36;3.00;;;1.77;;
74945;SDS011;63509;45.250;38.102;2024-01-25T10:11:03;10.15;;;1.58;;
74945;SDS011;63509;45.250;38.102;2024-01-25T10:13:29;5.68;;;1.98;;
74945;SDS011;63509;45.250;38.102;2024-01-25T10:15:56;5.22;;;2.00;;
74945;SDS011;63509;45.250;38.102;2024-01-25T10:18:23;2.20;;;1.02;;
74945;SDS011;63509;45.250;38.102;2024-01-25T10:20:54;3.28;;;1.85;;
74945;SDS011;63509;45.250;38.102;2024-01-25T10:23:20;15.88;;;2.47;;
74945;SDS011;63509;45.250;38.102;2024-01-25T10:25:47;9.70;;;3.25;;
74945;SDS011;63509;45.250;38.102;2024-01-25T10:28:14;5.78;;;2.50;;
74945;SDS011;63509;45.250;38.102;2024-01-25T10:30:40;6.53;;;2.58;;
74945;SDS011;63509;45.250;38.102;2024-01-25T10:33:06;26.20;;;3.05;;
74945;SDS011;63509;45.250;38.102;2024-01-25T10:35:34;11.88;;;2.92;;
74945;SDS011;63509;45.250;38.102;2024-01-25T10:38:03;4.80;;;2.58;;
74945;SDS011;63509;45.250;38.102;2024-01-25T10:40:29;14.32;;;2.40;;
74945;SDS011;63509;45.250;38.102;2024-01-25T10:42:55;5.40;;;2.63;;
74945;SDS011;63509;45.250;38.102;2024-01-25T10:45:22;7.18;;;3.88;;
74945;SDS011;63509;45.250;38.102;2024-01-25T10:47:48;6.07;;;2.42;;
74945;SDS011;63509;45.250;38.102;2024-01-25T10:50:15;16.38;;;5.20;;
74945;SDS011;63509;45.250;38.102;2024-01-25T10:52:41;9.50;;;3.88;;
74945;SDS011;63509;45.250;38.102;2024-01-25T10:55:07;10.82;;;2.83;;
74945;SDS011;63509;45.250;38.102;2024-01-25T10:57:35;37.20;;;2.75;;
74945;SDS011;63509;45.250;38.102;2024-01-25T11:00:06;2.65;;;1.08;;
74945;SDS011;63509;45.250;38.102;2024-01-25T11:02:38;3.95;;;1.40;;
74945;SDS011;63509;45.250;38.102;2024-01-25T11:05:23;2.15;;;1.38;;
74945;SDS011;63509;45.250;38.102;2024-01-25T11:07:50;5.53;;;2.03;;
74945;SDS011;63509;45.250;38.102;2024-01-25T11:10:17;10.15;;;2.63;;
74945;SDS011;63509;45.250;38.102;2024-01-25T11:12:48;4.03;;;1.58;;
74945;SDS011;63509;45.250;38.102;2024-01-25T11:17:51;4.25;;;0.98;;
74945;SDS011;63509;45.250;38.102;2024-01-25T11:20:20;6.30;;;1.35;;
74945;SDS011;63509;45.250;38.102;2024-01-25T11:23:01;8.68;;;2.75;;
74945;SDS011;63509;45.250;38.102;2024-01-25T11:25:28;0.95;;;0.63;;
74945;SDS011;63509;45.250;38.102;2024-01-25T11:27:56;5.88;;;1.38;;
74945;SDS011;63509;45.250;38.102;2024-01-25T11:30:22;1.23;;;0.55;;
74945;SDS011;63509;45.250;38.102;2024-01-25T11:32:49;1.17;;;0.60;;
74945;SDS011;63509;45.250;38.102;2024-01-25T11:35:15;2.65;;;1.42;;
74945;SDS011;63509;45.250;38.102;2024-01-25T11:37:43;2.05;;;1.08;;
74945;SDS011;63509;45.250;38.102;2024-01-25T11:40:11;1.40;;;0.73;;
74945;SDS011;63509;45.250;38.102;2024-01-25T11:42:38;1.00;;;0.70;;
74945;SDS011;63509;45.250;38.102;2024-01-25T11:45:06;1.38;;;0.60;;
74945;SDS011;63509;45.250;38.102;2024-01-25T11:47:35;2.60;;;1.67;;
74945;SDS011;63509;45.250;38.102;2024-01-25T11:50:02;4.50;;;1.20;;
74945;SDS011;63509;45.250;38.102;2024-01-25T11:52:31;12.95;;;1.90;;
74945;SDS011;63509;45.250;38.102;2024-01-25T11:55:02;4.78;;;1.52;;
74945;SDS011;63509;45.250;38.102;2024-01-25T11:57:34;3.80;;;1.02;;
74945;SDS011;63509;45.250;38.102;2024-01-25T12:00:03;2.17;;;1.17;;
74945;SDS011;63509;45.250;38.102;2024-01-25T12:02:33;3.63;;;1.42;;
74945;SDS011;63509;45.250;38.102;2024-01-25T12:04:59;4.60;;;2.53;;
74945;SDS011;63509;45.250;38.102;2024-01-25T12:07:31;4.75;;;2.33;;
74945;SDS011;63509;45.250;38.102;2024-01-25T12:10:02;5.57;;;2.65;;
74945;SDS011;63509;45.250;38.102;2024-01-25T12:12:29;6.05;;;2.90;;
74945;SDS011;63509;45.250;38.102;2024-01-25T12:14:59;2.85;;;1.52;;
74945;SDS011;63509;45.250;38.102;2024-01-25T12:17:27;5.68;;;1.73;;
74945;SDS011;63509;45.250;38.102;2024-01-25T12:19:57;4.10;;;1.17;;
74945;SDS011;63509;45.250;38.102;2024-01-25T12:22:26;2.28;;;0.85;;
74945;SDS011;63509;45.250;38.102;2024-01-25T12:24:54;5.72;;;0.43;;
74945;SDS011;63509;45.250;38.102;2024-01-25T12:27:23;2.28;;;0.88;;
74945;SDS011;63509;45.250;38.102;2024-01-25T12:29:51;7.25;;;1.98;;
74945;SDS011;63509;45.250;38.102;2024-01-25T12:32:21;4.75;;;2.33;;
74945;SDS011;63509;45.250;38.102;2024-01-25T12:34:57;0.93;;;0.35;;
74945;SDS011;63509;45.250;38.102;2024-01-25T12:37:29;5.72;;;0.98;;
74945;SDS011;63509;45.250;38.102;2024-01-25T12:39:55;3.95;;;1.25;;
74945;SDS011;63509;45.250;38.102;2024-01-25T12:42:21;3.92;;;1.60;;
74945;SDS011;63509;45.250;38.102;2024-01-25T12:44:48;3.58;;;1.75;;
74945;SDS011;63509;45.250;38.102;2024-01-25T12:47:19;7.45;;;2.92;;
74945;SDS011;63509;45.250;38.102;2024-01-25T12:49:46;3.15;;;1.70;;
74945;SDS011;63509;45.250;38.102;2024-01-25T12:52:13;11.02;;;2.30;;
74945;SDS011;63509;45.250;38.102;2024-01-25T12:54:40;6.75;;;2.00;;
74945;SDS011;63509;45.250;38.102;2024-01-25T12:57:07;3.03;;;1.17;;
74945;SDS011;63509;45.250;38.102;2024-01-25T12:59:33;3.38;;;1.98;;
74945;SDS011;63509;45.250;38.102;2024-01-25T13:02:00;4.20;;;2.25;;
74945;SDS011;63509;45.250;38.102;2024-01-25T13:04:27;3.25;;;1.30;;
74945;SDS011;63509;45.250;38.102;2024-01-25T13:06:54;2.42;;;1.15;;
74945;SDS011;63509;45.250;38.102;2024-01-25T13:09:23;3.35;;;0.98;;
74945;SDS011;63509;45.250;38.102;2024-01-25T13:11:50;12.90;;;1.95;;
74945;SDS011;63509;45.250;38.102;2024-01-25T13:16:45;2.60;;;0.95;;
74945;SDS011;63509;45.250;38.102;2024-01-25T13:19:11;2.05;;;0.93;;
74945;SDS011;63509;45.250;38.102;2024-01-25T13:21:38;16.13;;;1.00;;
74945;SDS011;63509;45.250;38.102;2024-01-25T13:24:04;16.38;;;1.35;;
74945;SDS011;63509;45.250;38.102;2024-01-25T13:26:32;2.03;;;0.73;;
74945;SDS011;63509;45.250;38.102;2024-01-25T13:28:59;5.50;;;0.98;;
74945;SDS011;63509;45.250;38.102;2024-01-25T13:31:25;4.72;;;1.05;;
74945;SDS011;63509;45.250;38.102;2024-01-25T13:33:51;7.10;;;2.05;;
74945;SDS011;63509;45.250;38.102;2024-01-25T13:36:17;1.55;;;0.80;;
74945;SDS011;63509;45.250;38.102;2024-01-25T13:38:44;8.80;;;1.23;;
74945;SDS011;63509;45.250;38.102;2024-01-25T13:41:10;1.67;;;0.90;;
74945;SDS011;63509;45.250;38.102;2024-01-25T13:43:37;2.95;;;1.08;;
74945;SDS011;63509;45.250;38.102;2024-01-25T13:46:03;1.67;;;0.70;;
74945;SDS011;63509;45.250;38.102;2024-01-25T13:48:29;3.75;;;1.38;;
74945;SDS011;63509;45.250;38.102;2024-01-25T13:50:55;6.30;;;0.93;;
74945;SDS011;63509;45.250;38.102;2024-01-25T13:53:21;4.25;;;1.80;;
74945;SDS011;63509;45.250;38.102;2024-01-25T13:55:47;6.63;;;1.80;;
74945;SDS011;63509;45.250;38.102;2024-01-25T13:58:13;3.22;;;1.17;;
74945;SDS011;63509;45.250;38.102;2024-01-25T14:00:39;1.52;;;0.80;;
74945;SDS011;63509;45.250;38.102;2024-01-25T14:03:06;2.08;;;0.80;;
74945;SDS011;63509;45.250;38.102;2024-01-25T14:05:32;2.08;;;0.73;;
74945;SDS011;63509;45.250;38.102;2024-01-25T14:07:58;2.10;;;1.00;;
74945;SDS011;63509;45.250;38.102;2024-01-25T14:10:25;2.70;;;1.05;;
74945;SDS011;63509;45.250;38.102;2024-01-25T14:12:53;3.28;;;1.02;;
74945;SDS011;63509;45.250;38.102;2024-01-25T14:15:20;1.42;;;0.60;;
74945;SDS011;63509;45.250;38.102;2024-01-25T14:17:46;2.90;;;1.02;;
74945;SDS011;63509;45.250;38.102;2024-01-25T14:20:13;3.47;;;1.75;;
74945;SDS011;63509;45.250;38.102;2024-01-25T14:22:39;10.27;;;1.08;;
74945;SDS011;63509;45.250;38.102;2024-01-25T14:25:05;2.05;;;1.00;;
74945;SDS011;63509;45.250;38.102;2024-01-25T14:27:31;1.13;;;0.70;;
74945;SDS011;63509;45.250;38.102;2024-01-25T14:29:58;1.40;;;0.47;;
74945;SDS011;63509;45.250;38.102;2024-01-25T14:32:25;2.35;;;0.88;;